createdAt,value
2023-07-25T00:03:54.886Z,18.64
2023-07-25T00:08:56.510Z,18.67
2023-07-25T00:13:58.121Z,18.68
2023-07-25T00:18:59.740Z,18.66
2023-07-25T00:24:01.415Z,18.72
2023-07-25T00:29:03.048Z,18.68
2023-07-25T00:34:05.564Z,18.57
2023-07-25T00:39:07.342Z,18.48
2023-07-25T00:44:09.342Z,18.49
2023-07-25T00:49:11.838Z,18.32
2023-07-25T00:54:13.680Z,18.41
2023-07-25T00:59:15.260Z,18.28
2023-07-25T01:04:16.957Z,18.14
2023-07-25T01:09:35.613Z,18.12
2023-07-25T01:14:38.258Z,18.07
2023-07-25T01:19:43.455Z,18.05
2023-07-25T01:24:48.621Z,17.98
2023-07-25T01:29:50.359Z,17.86
2023-07-25T01:34:52.024Z,17.83
2023-07-25T01:39:53.728Z,17.79
2023-07-25T01:44:55.754Z,17.72
2023-07-25T01:49:57.549Z,17.77
2023-07-25T01:54:59.245Z,17.62
2023-07-25T02:00:01.359Z,17.57
2023-07-25T02:05:03.421Z,17.49
2023-07-25T02:10:05.647Z,17.51
2023-07-25T02:15:07.920Z,17.40
2023-07-25T02:20:10.032Z,17.37
2023-07-25T02:25:11.809Z,17.31
2023-07-25T02:30:13.528Z,17.20
2023-07-25T02:35:15.937Z,17.20
2023-07-25T02:40:19.301Z,17.07
2023-07-25T02:45:21.047Z,17.02
2023-07-25T02:50:22.783Z,17.00
2023-07-25T02:55:24.613Z,16.97
2023-07-25T03:00:26.409Z,16.86
2023-07-25T03:05:29.330Z,16.83
2023-07-25T03:10:31.156Z,16.81
2023-07-25T03:15:32.908Z,16.96
2023-07-25T03:20:34.874Z,16.90
2023-07-25T03:25:36.725Z,16.93
2023-07-25T03:30:38.432Z,16.84
2023-07-25T03:35:40.329Z,16.94
2023-07-25T03:40:41.989Z,16.82
2023-07-25T03:45:43.837Z,16.86
2023-07-25T03:50:45.716Z,16.83
2023-07-25T03:55:47.504Z,16.83
2023-07-25T04:00:49.306Z,16.85
2023-07-25T04:05:50.983Z,16.90
2023-07-25T04:10:52.685Z,16.71
2023-07-25T04:15:54.471Z,16.68
2023-07-25T04:20:56.292Z,16.84
2023-07-25T04:25:57.998Z,17.18
2023-07-25T04:30:59.835Z,17.26
2023-07-25T04:36:01.602Z,17.18
2023-07-25T04:41:03.377Z,17.24
2023-07-25T04:46:05.174Z,17.38
2023-07-25T04:51:07.049Z,17.54
2023-07-25T04:56:08.842Z,17.50
2023-07-25T05:01:10.799Z,17.43
2023-07-25T05:06:12.746Z,17.62
2023-07-25T05:11:14.473Z,17.67
2023-07-25T05:16:16.442Z,17.80
2023-07-25T05:21:18.244Z,17.92
2023-07-25T05:26:20.038Z,17.85
2023-07-25T05:31:21.792Z,17.92
2023-07-25T05:36:23.628Z,17.87
2023-07-25T05:41:25.379Z,17.74
2023-07-25T05:46:27.054Z,17.98
2023-07-25T05:51:29.026Z,18.02
2023-07-25T05:56:30.951Z,18.02
2023-07-25T06:01:33.129Z,18.30
2023-07-25T06:06:35.052Z,18.48
2023-07-25T06:11:37.393Z,18.50
2023-07-25T06:16:39.236Z,18.46
2023-07-25T06:21:41.066Z,18.48
2023-07-25T06:26:42.997Z,18.47
2023-07-25T06:31:44.714Z,18.53
2023-07-25T06:36:46.450Z,18.89
2023-07-25T06:41:48.106Z,18.78
2023-07-25T06:46:53.592Z,18.45
2023-07-25T06:51:57.118Z,18.57
2023-07-25T06:56:58.917Z,18.76
2023-07-25T07:02:00.778Z,18.56
2023-07-25T07:07:02.599Z,18.27
2023-07-25T07:12:04.793Z,18.34
2023-07-25T07:17:06.663Z,18.19
2023-07-25T07:22:10.070Z,18.19
2023-07-25T07:27:11.941Z,18.36
2023-07-25T07:32:14.189Z,18.44
2023-07-25T07:37:15.872Z,18.69
2023-07-25T07:42:17.704Z,18.92
2023-07-25T07:47:19.372Z,19.02
2023-07-25T07:52:32.846Z,19.02
2023-07-25T07:57:48.083Z,18.79
2023-07-25T08:02:51.466Z,18.83
2023-07-25T08:07:53.465Z,18.45
2023-07-25T08:12:55.223Z,18.63
2023-07-25T08:17:57.042Z,18.21
2023-07-25T08:22:59.073Z,18.11
2023-07-25T08:28:00.794Z,18.44
2023-07-25T08:33:02.588Z,18.57
2023-07-25T08:38:04.342Z,18.66
2023-07-25T08:43:12.483Z,18.76
2023-07-25T08:48:16.302Z,19.24
2023-07-25T08:53:18.557Z,19.85
2023-07-25T08:58:20.824Z,20.02
2023-07-25T09:03:22.753Z,20.19
2023-07-25T09:08:24.560Z,20.99
2023-07-25T09:13:26.510Z,21.42
2023-07-25T09:18:28.189Z,21.67
2023-07-25T09:23:30.192Z,22.17
2023-07-25T09:28:33.132Z,22.48
2023-07-25T09:33:34.849Z,22.32
2023-07-25T09:38:36.726Z,22.57
2023-07-25T09:43:39.938Z,22.30
2023-07-25T09:48:46.304Z,22.16
2023-07-25T09:53:53.527Z,22.25
2023-07-25T10:04:00.738Z,22.07
2023-07-25T10:09:03.017Z,21.41
2023-07-25T10:14:04.885Z,21.74
2023-07-25T10:19:07.264Z,21.70
2023-07-25T10:24:13.351Z,21.92
2023-07-25T10:29:44.192Z,21.86
2023-07-25T10:35:01.021Z,21.58
2023-07-25T10:40:18.218Z,21.78
2023-07-25T10:45:28.668Z,21.26
2023-07-25T10:50:55.278Z,21.06
2023-07-25T10:56:08.659Z,20.92
2023-07-25T11:01:39.631Z,20.52
2023-07-25T11:06:41.790Z,20.65
2023-07-25T11:11:47.576Z,20.48
2023-07-25T11:16:51.898Z,20.86
2023-07-25T11:21:54.007Z,21.15
2023-07-25T11:26:55.771Z,22.00
2023-07-25T11:31:57.481Z,22.07
2023-07-25T11:36:59.823Z,22.19
2023-07-25T11:42:01.493Z,22.41
2023-07-25T11:47:03.614Z,22.34
2023-07-25T11:52:06.095Z,21.79
2023-07-25T11:57:09.437Z,21.71
2023-07-25T12:02:14.203Z,21.75
2023-07-25T12:07:16.191Z,21.94
2023-07-25T12:12:18.427Z,21.97
2023-07-25T12:17:20.289Z,21.82
2023-07-25T12:22:22.064Z,21.68
2023-07-25T12:27:23.693Z,21.75
2023-07-25T12:32:25.423Z,21.57
2023-07-25T12:37:27.107Z,21.55
2023-07-25T12:42:28.751Z,21.27
2023-07-25T12:47:30.524Z,20.83
2023-07-25T12:52:32.447Z,20.98
2023-07-25T12:57:34.374Z,20.50
2023-07-25T13:02:36.254Z,20.29
2023-07-25T13:07:38.225Z,20.24
2023-07-25T13:12:40.649Z,20.53
2023-07-25T13:17:42.500Z,20.23
2023-07-25T13:22:44.261Z,19.85
2023-07-25T13:27:45.915Z,19.84
2023-07-25T13:32:47.661Z,19.45
2023-07-25T13:37:49.690Z,19.28
2023-07-25T13:42:51.594Z,19.02
2023-07-25T13:47:53.545Z,19.11
2023-07-25T13:52:55.358Z,18.68
2023-07-25T13:57:57.026Z,18.75
2023-07-25T14:02:58.776Z,18.67
2023-07-25T14:08:00.683Z,18.54
2023-07-25T14:13:02.426Z,18.27
2023-07-25T14:18:04.272Z,18.07
2023-07-25T14:23:06.217Z,18.07
2023-07-25T14:28:07.910Z,17.82
2023-07-25T14:33:09.980Z,17.86
2023-07-25T14:38:14.056Z,17.59
2023-07-25T14:43:16.173Z,17.52
2023-07-25T14:48:18.163Z,17.50
2023-07-25T14:53:20.658Z,17.63
2023-07-25T14:58:22.721Z,18.12
2023-07-25T15:03:24.516Z,17.73
2023-07-25T15:08:26.901Z,17.52
2023-07-25T15:13:28.589Z,17.51
2023-07-25T15:18:30.528Z,17.28
2023-07-25T15:23:32.229Z,17.51
2023-07-25T15:28:33.888Z,17.27
2023-07-25T15:33:35.642Z,17.17
2023-07-25T15:38:37.772Z,17.02
2023-07-25T15:43:39.567Z,16.91
2023-07-25T15:48:41.221Z,17.04
2023-07-25T15:53:42.874Z,16.94
2023-07-25T15:58:44.604Z,16.79
2023-07-25T16:03:47.315Z,16.87
2023-07-25T16:08:49.221Z,16.84
2023-07-25T16:13:50.910Z,16.86
2023-07-25T16:18:52.715Z,16.94
2023-07-25T16:23:54.376Z,16.81
2023-07-25T16:28:56.025Z,16.79
2023-07-25T16:33:57.709Z,16.86
2023-07-25T16:38:59.398Z,16.81
2023-07-25T16:44:01.010Z,16.66
2023-07-25T16:49:02.695Z,16.67
2023-07-25T16:54:04.696Z,16.61
2023-07-25T16:59:08.139Z,16.73
2023-07-25T17:04:09.939Z,16.70
2023-07-25T17:09:11.628Z,16.64
2023-07-25T17:14:13.316Z,16.56
2023-07-25T17:19:15.132Z,16.55
2023-07-25T17:24:16.962Z,16.48
2023-07-25T17:29:18.693Z,16.51
2023-07-25T17:34:21.011Z,16.55
2023-07-25T17:39:23.203Z,16.38
2023-07-25T17:44:24.909Z,16.17
2023-07-25T17:49:26.603Z,16.18
2023-07-25T17:54:28.483Z,16.23
2023-07-25T17:59:30.286Z,16.29
2023-07-25T18:04:31.962Z,16.21
2023-07-25T18:09:33.700Z,16.37
2023-07-25T18:14:35.544Z,16.23
2023-07-25T18:19:40.419Z,16.43
2023-07-25T18:24:42.242Z,16.11
2023-07-25T18:29:44.411Z,15.91
2023-07-25T18:34:46.280Z,16.02
2023-07-25T18:39:48.221Z,15.90
2023-07-25T18:44:50.112Z,15.58
2023-07-25T18:49:52.426Z,15.39
2023-07-25T18:54:54.401Z,15.25
2023-07-25T18:59:57.113Z,15.13
2023-07-25T19:04:58.954Z,15.13
2023-07-25T19:10:00.978Z,14.90
2023-07-25T19:15:03.178Z,14.92
2023-07-25T19:20:05.524Z,14.79
2023-07-25T19:25:07.502Z,14.59
2023-07-25T19:30:11.452Z,14.55
2023-07-25T19:35:13.323Z,14.51
2023-07-25T19:40:15.633Z,14.36
2023-07-25T19:45:17.411Z,14.36
2023-07-25T19:50:19.237Z,14.46
2023-07-25T19:55:23.281Z,14.60
2023-07-25T20:00:25.018Z,14.67
2023-07-25T20:05:27.020Z,14.48
2023-07-25T20:10:29.088Z,14.48
2023-07-25T20:15:31.130Z,14.29
2023-07-25T20:20:32.912Z,14.34
2023-07-25T20:25:34.677Z,14.27
2023-07-25T20:30:36.492Z,14.20
2023-07-25T20:35:39.297Z,14.28
2023-07-25T20:40:41.232Z,14.22
2023-07-25T20:45:43.150Z,14.12
2023-07-25T20:50:44.838Z,14.24
2023-07-25T20:55:46.680Z,14.26
2023-07-25T21:00:49.045Z,14.32
2023-07-25T21:05:50.962Z,14.22
2023-07-25T21:10:52.704Z,14.51
2023-07-25T21:15:54.425Z,14.52
2023-07-25T21:20:56.890Z,14.42
2023-07-25T21:25:58.653Z,14.54
2023-07-25T21:31:00.781Z,14.39
2023-07-25T21:36:15.074Z,14.36
2023-07-25T21:41:16.866Z,14.34
2023-07-25T21:46:18.617Z,14.53
2023-07-25T21:51:20.814Z,14.34
2023-07-25T21:56:22.584Z,14.24
2023-07-25T22:01:24.342Z,14.35
2023-07-25T22:06:26.106Z,14.39
2023-07-25T22:11:27.920Z,14.38
2023-07-25T22:16:29.823Z,14.39
2023-07-25T22:21:33.069Z,14.28
2023-07-25T22:26:34.994Z,14.29
2023-07-25T22:31:37.428Z,14.17
2023-07-25T22:36:39.186Z,14.43
2023-07-25T22:41:40.896Z,14.44
2023-07-25T22:46:43.915Z,14.39
2023-07-25T22:51:45.632Z,14.33
2023-07-25T22:56:47.350Z,14.35
2023-07-25T23:01:49.037Z,14.34
2023-07-25T23:06:50.731Z,14.34
2023-07-25T23:11:53.014Z,14.15
2023-07-25T23:16:54.752Z,13.99
2023-07-25T23:21:56.459Z,13.89
2023-07-25T23:26:58.151Z,13.99
2023-07-25T23:31:59.804Z,13.87
2023-07-25T23:37:01.457Z,14.12
2023-07-25T23:42:04.134Z,14.18
2023-07-25T23:47:06.021Z,14.27
2023-07-25T23:52:08.124Z,14.02
2023-07-25T23:57:09.834Z,13.93
